sensor_id;sensor_type;location;lat;lon;timestamp;temperature;humidity
18779;DHT22;9518;51.720;14.384;2023-02-11T00:00:20;1.10;99.90
18779;DHT22;9518;51.720;14.384;2023-02-11T00:02:47;1.10;99.90
18779;DHT22;9518;51.720;14.384;2023-02-11T00:05:14;1.10;99.90
18779;DHT22;9518;51.720;14.384;2023-02-11T00:07:43;1.00;99.90
18779;DHT22;9518;51.720;14.384;2023-02-11T00:10:12;1.00;99.90
18779;DHT22;9518;51.720;14.384;2023-02-11T00:12:39;1.10;99.90
18779;DHT22;9518;51.720;14.384;2023-02-11T00:15:08;1.00;99.90
18779;DHT22;9518;51.720;14.384;2023-02-11T00:17:35;1.10;99.90
18779;DHT22;9518;51.720;14.384;2023-02-11T00:20:02;1.10;99.90
18779;DHT22;9518;51.720;14.384;2023-02-11T00:22:30;1.10;99.90
18779;DHT22;9518;51.720;14.384;2023-02-11T00:24:57;1.20;99.90
18779;DHT22;9518;51.720;14.384;2023-02-11T00:27:25;1.20;32.30
18779;DHT22;9518;51.720;14.384;2023-02-11T00:29:52;1.20;23.80
18779;DHT22;9518;51.720;14.384;2023-02-11T00:32:19;1.20;31.10
18779;DHT22;9518;51.720;14.384;2023-02-11T00:34:46;1.10;27.80
18779;DHT22;9518;51.720;14.384;2023-02-11T00:37:13;1.10;99.90
18779;DHT22;9518;51.720;14.384;2023-02-11T00:39:40;1.20;99.90
18779;DHT22;9518;51.720;14.384;2023-02-11T00:42:07;1.20;99.90
18779;DHT22;9518;51.720;14.384;2023-02-11T00:44:36;1.20;99.90
18779;DHT22;9518;51.720;14.384;2023-02-11T00:47:03;1.10;99.90
18779;DHT22;9518;51.720;14.384;2023-02-11T00:49:30;1.10;99.90
18779;DHT22;9518;51.720;14.384;2023-02-11T00:51:57;1.10;99.90
18779;DHT22;9518;51.720;14.384;2023-02-11T00:54:24;1.20;99.90
18779;DHT22;9518;51.720;14.384;2023-02-11T00:56:51;1.20;99.90
18779;DHT22;9518;51.720;14.384;2023-02-11T00:59:18;1.20;99.90
18779;DHT22;9518;51.720;14.384;2023-02-11T01:01:46;1.30;99.90
18779;DHT22;9518;51.720;14.384;2023-02-11T01:04:13;1.30;99.90
18779;DHT22;9518;51.720;14.384;2023-02-11T01:06:40;1.40;1.00
18779;DHT22;9518;51.720;14.384;2023-02-11T01:09:07;1.40;1.00
18779;DHT22;9518;51.720;14.384;2023-02-11T01:11:34;1.40;1.00
18779;DHT22;9518;51.720;14.384;2023-02-11T01:14:01;1.40;1.00
18779;DHT22;9518;51.720;14.384;2023-02-11T01:16:28;1.40;1.00
18779;DHT22;9518;51.720;14.384;2023-02-11T01:18:56;1.50;1.00
18779;DHT22;9518;51.720;14.384;2023-02-11T01:21:24;1.50;1.00
18779;DHT22;9518;51.720;14.384;2023-02-11T01:23:51;1.50;1.00
18779;DHT22;9518;51.720;14.384;2023-02-11T01:26:18;1.50;1.00
18779;DHT22;9518;51.720;14.384;2023-02-11T01:28:45;1.60;1.00
18779;DHT22;9518;51.720;14.384;2023-02-11T01:31:12;1.60;1.00
18779;DHT22;9518;51.720;14.384;2023-02-11T01:33:39;1.60;1.00
18779;DHT22;9518;51.720;14.384;2023-02-11T01:36:10;1.60;1.00
18779;DHT22;9518;51.720;14.384;2023-02-11T01:38:37;1.70;1.00
18779;DHT22;9518;51.720;14.384;2023-02-11T01:41:08;1.70;1.00
18779;DHT22;9518;51.720;14.384;2023-02-11T01:43:37;1.60;1.00
18779;DHT22;9518;51.720;14.384;2023-02-11T01:46:16;1.60;1.00
18779;DHT22;9518;51.720;14.384;2023-02-11T01:48:47;1.60;1.00
18779;DHT22;9518;51.720;14.384;2023-02-11T01:51:21;1.70;1.00
18779;DHT22;9518;51.720;14.384;2023-02-11T01:53:53;1.80;1.00
18779;DHT22;9518;51.720;14.384;2023-02-11T01:56:47;1.80;1.00
18779;DHT22;9518;51.720;14.384;2023-02-11T01:59:37;1.90;1.00
18779;DHT22;9518;51.720;14.384;2023-02-11T02:02:08;2.00;1.00
18779;DHT22;9518;51.720;14.384;2023-02-11T02:04:40;2.00;1.00
18779;DHT22;9518;51.720;14.384;2023-02-11T02:07:11;2.10;1.00
18779;DHT22;9518;51.720;14.384;2023-02-11T02:09:43;2.20;1.00
18779;DHT22;9518;51.720;14.384;2023-02-11T02:12:10;2.10;1.00
18779;DHT22;9518;51.720;14.384;2023-02-11T02:14:38;2.10;1.00
18779;DHT22;9518;51.720;14.384;2023-02-11T02:17:06;2.20;1.00
18779;DHT22;9518;51.720;14.384;2023-02-11T02:20:10;2.20;1.00
18779;DHT22;9518;51.720;14.384;2023-02-11T02:26:02;2.40;99.90
18779;DHT22;9518;51.720;14.384;2023-02-11T02:28:47;2.40;99.90
18779;DHT22;9518;51.720;14.384;2023-02-11T02:31:43;2.40;99.90
18779;DHT22;9518;51.720;14.384;2023-02-11T02:34:24;2.40;99.90
18779;DHT22;9518;51.720;14.384;2023-02-11T02:36:59;2.50;99.90
18779;DHT22;9518;51.720;14.384;2023-02-11T02:39:32;2.60;99.90
18779;DHT22;9518;51.720;14.384;2023-02-11T02:42:00;2.60;99.90
18779;DHT22;9518;51.720;14.384;2023-02-11T02:44:28;2.60;99.90
18779;DHT22;9518;51.720;14.384;2023-02-11T02:46:55;2.70;99.90
18779;DHT22;9518;51.720;14.384;2023-02-11T02:49:23;2.70;99.90
18779;DHT22;9518;51.720;14.384;2023-02-11T02:52:14;2.70;99.90
18779;DHT22;9518;51.720;14.384;2023-02-11T02:55:08;2.70;99.90
18779;DHT22;9518;51.720;14.384;2023-02-11T02:57:47;2.70;99.90
18779;DHT22;9518;51.720;14.384;2023-02-11T03:00:23;2.80;99.90
18779;DHT22;9518;51.720;14.384;2023-02-11T03:03:06;2.80;84.60
18779;DHT22;9518;51.720;14.384;2023-02-11T03:05:43;2.90;1.00
18779;DHT22;9518;51.720;14.384;2023-02-11T03:08:17;3.00;1.00
18779;DHT22;9518;51.720;14.384;2023-02-11T03:10:49;3.10;1.00
18779;DHT22;9518;51.720;14.384;2023-02-11T03:13:19;3.10;1.00
18779;DHT22;9518;51.720;14.384;2023-02-11T03:15:50;3.20;1.00
18779;DHT22;9518;51.720;14.384;2023-02-11T03:18:23;3.20;1.00
18779;DHT22;9518;51.720;14.384;2023-02-11T03:20:53;3.10;1.00
18779;DHT22;9518;51.720;14.384;2023-02-11T03:23:25;3.10;1.00
18779;DHT22;9518;51.720;14.384;2023-02-11T03:25:56;3.10;1.00
18779;DHT22;9518;51.720;14.384;2023-02-11T03:28:29;3.10;1.00
18779;DHT22;9518;51.720;14.384;2023-02-11T03:31:07;3.10;1.00
18779;DHT22;9518;51.720;14.384;2023-02-11T03:33:37;3.10;1.00
18779;DHT22;9518;51.720;14.384;2023-02-11T03:36:10;3.00;1.00
18779;DHT22;9518;51.720;14.384;2023-02-11T03:38:44;3.10;1.00
18779;DHT22;9518;51.720;14.384;2023-02-11T03:41:16;3.00;1.00
18779;DHT22;9518;51.720;14.384;2023-02-11T03:43:48;3.10;1.00
18779;DHT22;9518;51.720;14.384;2023-02-11T03:46:19;3.10;1.00
18779;DHT22;9518;51.720;14.384;2023-02-11T03:48:50;3.20;1.00
18779;DHT22;9518;51.720;14.384;2023-02-11T03:51:20;3.20;1.00
18779;DHT22;9518;51.720;14.384;2023-02-11T03:53:49;3.20;1.00
18779;DHT22;9518;51.720;14.384;2023-02-11T03:56:23;3.20;1.00
18779;DHT22;9518;51.720;14.384;2023-02-11T03:58:51;3.20;35.40
18779;DHT22;9518;51.720;14.384;2023-02-11T04:01:18;3.20;24.60
18779;DHT22;9518;51.720;14.384;2023-02-11T04:03:45;3.30;20.60
18779;DHT22;9518;51.720;14.384;2023-02-11T04:06:12;3.30;1.00
18779;DHT22;9518;51.720;14.384;2023-02-11T04:08:41;3.30;79.50
18779;DHT22;9518;51.720;14.384;2023-02-11T04:11:08;3.20;99.90
18779;DHT22;9518;51.720;14.384;2023-02-11T04:13:35;3.20;99.90
18779;DHT22;9518;51.720;14.384;2023-02-11T04:16:02;3.30;99.90
18779;DHT22;9518;51.720;14.384;2023-02-11T04:18:29;3.30;99.90
18779;DHT22;9518;51.720;14.384;2023-02-11T04:20:56;3.30;99.90
18779;DHT22;9518;51.720;14.384;2023-02-11T04:23:23;3.30;99.90
18779;DHT22;9518;51.720;14.384;2023-02-11T04:25:51;3.30;99.90
18779;DHT22;9518;51.720;14.384;2023-02-11T04:28:18;3.30;99.90
18779;DHT22;9518;51.720;14.384;2023-02-11T04:30:45;3.30;99.90
18779;DHT22;9518;51.720;14.384;2023-02-11T04:33:12;3.40;99.90
18779;DHT22;9518;51.720;14.384;2023-02-11T04:35:39;3.50;20.70
18779;DHT22;9518;51.720;14.384;2023-02-11T04:38:06;3.50;56.30
18779;DHT22;9518;51.720;14.384;2023-02-11T04:40:33;3.50;98.30
18779;DHT22;9518;51.720;14.384;2023-02-11T04:43:01;3.50;99.90
18779;DHT22;9518;51.720;14.384;2023-02-11T04:45:28;3.50;99.90
18779;DHT22;9518;51.720;14.384;2023-02-11T04:47:55;3.50;99.90
18779;DHT22;9518;51.720;14.384;2023-02-11T04:50:22;3.50;99.90
18779;DHT22;9518;51.720;14.384;2023-02-11T04:52:49;3.40;1.00
18779;DHT22;9518;51.720;14.384;2023-02-11T04:55:17;3.40;1.00
18779;DHT22;9518;51.720;14.384;2023-02-11T04:57:44;3.40;1.00
18779;DHT22;9518;51.720;14.384;2023-02-11T05:00:13;3.50;1.00
18779;DHT22;9518;51.720;14.384;2023-02-11T05:02:41;3.50;1.00
18779;DHT22;9518;51.720;14.384;2023-02-11T05:05:09;3.60;1.00
18779;DHT22;9518;51.720;14.384;2023-02-11T05:07:36;3.60;1.00
18779;DHT22;9518;51.720;14.384;2023-02-11T05:10:04;3.60;1.00
18779;DHT22;9518;51.720;14.384;2023-02-11T05:12:31;3.60;1.00
18779;DHT22;9518;51.720;14.384;2023-02-11T05:14:58;3.60;1.00
18779;DHT22;9518;51.720;14.384;2023-02-11T05:17:26;3.50;1.00
18779;DHT22;9518;51.720;14.384;2023-02-11T05:19:53;3.50;1.00
18779;DHT22;9518;51.720;14.384;2023-02-11T05:22:20;3.50;1.00
18779;DHT22;9518;51.720;14.384;2023-02-11T05:24:49;3.40;99.90
18779;DHT22;9518;51.720;14.384;2023-02-11T05:27:16;3.50;99.90
18779;DHT22;9518;51.720;14.384;2023-02-11T05:29:43;3.50;1.00
18779;DHT22;9518;51.720;14.384;2023-02-11T05:32:10;3.40;1.00
18779;DHT22;9518;51.720;14.384;2023-02-11T05:34:38;3.40;99.90
18779;DHT22;9518;51.720;14.384;2023-02-11T05:37:05;3.30;1.00
18779;DHT22;9518;51.720;14.384;2023-02-11T05:39:32;3.30;1.00
18779;DHT22;9518;51.720;14.384;2023-02-11T05:41:59;3.30;99.90
18779;DHT22;9518;51.720;14.384;2023-02-11T05:44:26;3.30;1.00
18779;DHT22;9518;51.720;14.384;2023-02-11T05:46:53;3.20;99.90
18779;DHT22;9518;51.720;14.384;2023-02-11T05:49:20;3.20;99.90
18779;DHT22;9518;51.720;14.384;2023-02-11T05:51:48;3.20;1.00
18779;DHT22;9518;51.720;14.384;2023-02-11T05:54:16;3.20;1.00
18779;DHT22;9518;51.720;14.384;2023-02-11T05:56:43;3.30;99.90
18779;DHT22;9518;51.720;14.384;2023-02-11T05:59:11;3.30;99.90
18779;DHT22;9518;51.720;14.384;2023-02-11T06:01:38;3.40;1.00
18779;DHT22;9518;51.720;14.384;2023-02-11T06:04:05;3.40;1.00
18779;DHT22;9518;51.720;14.384;2023-02-11T06:06:32;3.40;1.00
18779;DHT22;9518;51.720;14.384;2023-02-11T06:09:01;3.40;1.00
18779;DHT22;9518;51.720;14.384;2023-02-11T06:11:28;3.40;99.90
18779;DHT22;9518;51.720;14.384;2023-02-11T06:13:57;3.50;1.00
18779;DHT22;9518;51.720;14.384;2023-02-11T06:16:24;3.50;99.90
18779;DHT22;9518;51.720;14.384;2023-02-11T06:18:51;3.50;99.90
18779;DHT22;9518;51.720;14.384;2023-02-11T06:21:18;3.60;1.00
18779;DHT22;9518;51.720;14.384;2023-02-11T06:23:45;3.50;1.00
18779;DHT22;9518;51.720;14.384;2023-02-11T06:26:18;3.50;1.00
18779;DHT22;9518;51.720;14.384;2023-02-11T06:28:46;3.50;1.00
18779;DHT22;9518;51.720;14.384;2023-02-11T06:31:13;3.60;1.00
18779;DHT22;9518;51.720;14.384;2023-02-11T06:33:40;3.60;1.00
18779;DHT22;9518;51.720;14.384;2023-02-11T06:36:13;3.60;1.00
18779;DHT22;9518;51.720;14.384;2023-02-11T06:38:40;3.60;99.90
18779;DHT22;9518;51.720;14.384;2023-02-11T06:41:09;3.60;99.90
18779;DHT22;9518;51.720;14.384;2023-02-11T06:43:37;3.70;1.00
18779;DHT22;9518;51.720;14.384;2023-02-11T06:46:05;3.70;1.00
18779;DHT22;9518;51.720;14.384;2023-02-11T06:48:32;3.80;1.00
18779;DHT22;9518;51.720;14.384;2023-02-11T06:51:01;3.80;1.00
18779;DHT22;9518;51.720;14.384;2023-02-11T06:53:28;3.80;1.00
18779;DHT22;9518;51.720;14.384;2023-02-11T06:55:55;3.80;1.00
18779;DHT22;9518;51.720;14.384;2023-02-11T06:58:22;3.80;1.00
18779;DHT22;9518;51.720;14.384;2023-02-11T07:00:51;3.90;1.00
18779;DHT22;9518;51.720;14.384;2023-02-11T07:03:18;3.80;1.00
18779;DHT22;9518;51.720;14.384;2023-02-11T07:05:45;3.90;1.00
18779;DHT22;9518;51.720;14.384;2023-02-11T07:08:12;3.90;1.00
18779;DHT22;9518;51.720;14.384;2023-02-11T07:10:39;3.90;1.00
18779;DHT22;9518;51.720;14.384;2023-02-11T07:13:06;4.00;1.00
18779;DHT22;9518;51.720;14.384;2023-02-11T07:15:33;4.00;1.00
18779;DHT22;9518;51.720;14.384;2023-02-11T07:18:01;4.00;1.00
18779;DHT22;9518;51.720;14.384;2023-02-11T07:20:28;4.00;1.00
18779;DHT22;9518;51.720;14.384;2023-02-11T07:22:55;4.10;1.00
18779;DHT22;9518;51.720;14.384;2023-02-11T07:25:24;4.00;26.00
18779;DHT22;9518;51.720;14.384;2023-02-11T07:27:51;4.10;1.00
18779;DHT22;9518;51.720;14.384;2023-02-11T07:30:18;4.10;1.00
18779;DHT22;9518;51.720;14.384;2023-02-11T07:32:45;4.10;99.90
18779;DHT22;9518;51.720;14.384;2023-02-11T07:35:14;4.00;99.90
18779;DHT22;9518;51.720;14.384;2023-02-11T07:37:41;4.10;1.00
18779;DHT22;9518;51.720;14.384;2023-02-11T07:40:09;4.00;99.90
18779;DHT22;9518;51.720;14.384;2023-02-11T07:42:36;4.00;1.00
18779;DHT22;9518;51.720;14.384;2023-02-11T07:45:05;3.90;1.00
18779;DHT22;9518;51.720;14.384;2023-02-11T07:47:33;3.80;99.90
18779;DHT22;9518;51.720;14.384;2023-02-11T07:50:03;3.80;1.00
18779;DHT22;9518;51.720;14.384;2023-02-11T07:52:32;3.80;1.00
18779;DHT22;9518;51.720;14.384;2023-02-11T07:55:02;3.80;1.00
18779;DHT22;9518;51.720;14.384;2023-02-11T07:57:31;3.80;1.00
18779;DHT22;9518;51.720;14.384;2023-02-11T07:59:58;3.80;1.00
18779;DHT22;9518;51.720;14.384;2023-02-11T08:02:26;3.80;99.90
18779;DHT22;9518;51.720;14.384;2023-02-11T08:04:53;4.00;99.90
18779;DHT22;9518;51.720;14.384;2023-02-11T08:07:20;4.10;1.00
18779;DHT22;9518;51.720;14.384;2023-02-11T08:09:48;4.30;1.00
18779;DHT22;9518;51.720;14.384;2023-02-11T08:12:15;4.40;25.80
18779;DHT22;9518;51.720;14.384;2023-02-11T08:14:42;4.50;99.90
18779;DHT22;9518;51.720;14.384;2023-02-11T08:17:09;4.60;1.00
18779;DHT22;9518;51.720;14.384;2023-02-11T08:19:36;4.50;1.00
18779;DHT22;9518;51.720;14.384;2023-02-11T08:22:04;4.50;1.00
18779;DHT22;9518;51.720;14.384;2023-02-11T08:24:31;4.60;1.00
18779;DHT22;9518;51.720;14.384;2023-02-11T08:27:00;4.70;99.90
18779;DHT22;9518;51.720;14.384;2023-02-11T08:29:27;4.70;99.90
18779;DHT22;9518;51.720;14.384;2023-02-11T08:31:53;4.70;99.90
18779;DHT22;9518;51.720;14.384;2023-02-11T08:34:20;4.80;99.90
18779;DHT22;9518;51.720;14.384;2023-02-11T08:36:47;4.80;1.00
18779;DHT22;9518;51.720;14.384;2023-02-11T08:39:16;4.80;1.00
18779;DHT22;9518;51.720;14.384;2023-02-11T08:41:44;4.80;1.00
18779;DHT22;9518;51.720;14.384;2023-02-11T08:44:13;4.90;1.00
18779;DHT22;9518;51.720;14.384;2023-02-11T08:46:40;5.00;1.00
18779;DHT22;9518;51.720;14.384;2023-02-11T08:49:07;5.00;1.00
18779;DHT22;9518;51.720;14.384;2023-02-11T08:51:34;5.00;1.00
18779;DHT22;9518;51.720;14.384;2023-02-11T08:54:01;5.10;1.00
18779;DHT22;9518;51.720;14.384;2023-02-11T08:56:28;5.10;1.00
18779;DHT22;9518;51.720;14.384;2023-02-11T08:58:57;5.20;1.00
18779;DHT22;9518;51.720;14.384;2023-02-11T09:01:26;5.20;1.00
18779;DHT22;9518;51.720;14.384;2023-02-11T09:03:54;5.20;1.00
18779;DHT22;9518;51.720;14.384;2023-02-11T09:06:22;5.30;1.00
18779;DHT22;9518;51.720;14.384;2023-02-11T09:08:51;5.30;1.00
18779;DHT22;9518;51.720;14.384;2023-02-11T09:11:20;5.40;1.00
18779;DHT22;9518;51.720;14.384;2023-02-11T09:13:47;5.40;1.00
18779;DHT22;9518;51.720;14.384;2023-02-11T09:16:16;5.60;1.00
18779;DHT22;9518;51.720;14.384;2023-02-11T09:18:48;5.60;99.90
18779;DHT22;9518;51.720;14.384;2023-02-11T09:21:16;5.70;1.00
18779;DHT22;9518;51.720;14.384;2023-02-11T09:23:43;5.70;1.00
18779;DHT22;9518;51.720;14.384;2023-02-11T09:26:14;5.80;99.90
18779;DHT22;9518;51.720;14.384;2023-02-11T09:28:41;5.80;99.90
18779;DHT22;9518;51.720;14.384;2023-02-11T09:31:10;5.90;99.90
18779;DHT22;9518;51.720;14.384;2023-02-11T09:33:38;6.00;99.90
18779;DHT22;9518;51.720;14.384;2023-02-11T09:36:08;6.10;86.50
18779;DHT22;9518;51.720;14.384;2023-02-11T09:38:35;6.20;36.70
18779;DHT22;9518;51.720;14.384;2023-02-11T09:41:03;6.30;1.00
18779;DHT22;9518;51.720;14.384;2023-02-11T09:43:36;6.40;1.00
18779;DHT22;9518;51.720;14.384;2023-02-11T09:46:12;6.50;1.00
18779;DHT22;9518;51.720;14.384;2023-02-11T09:48:42;6.40;1.00
18779;DHT22;9518;51.720;14.384;2023-02-11T09:51:19;6.50;1.00
18779;DHT22;9518;51.720;14.384;2023-02-11T09:53:51;6.60;1.00
18779;DHT22;9518;51.720;14.384;2023-02-11T09:56:20;6.30;1.00
18779;DHT22;9518;51.720;14.384;2023-02-11T09:58:47;6.20;1.00
18779;DHT22;9518;51.720;14.384;2023-02-11T10:01:19;6.20;11.60
18779;DHT22;9518;51.720;14.384;2023-02-11T10:04:01;6.10;99.90
18779;DHT22;9518;51.720;14.384;2023-02-11T10:06:37;6.20;99.90
18779;DHT22;9518;51.720;14.384;2023-02-11T10:09:15;6.30;1.00
18779;DHT22;9518;51.720;14.384;2023-02-11T10:11:51;6.40;50.10
18779;DHT22;9518;51.720;14.384;2023-02-11T10:14:31;6.30;1.00
18779;DHT22;9518;51.720;14.384;2023-02-11T10:17:09;6.40;54.40
18779;DHT22;9518;51.720;14.384;2023-02-11T10:19:53;6.40;55.30
18779;DHT22;9518;51.720;14.384;2023-02-11T10:22:27;6.40;99.90
18779;DHT22;9518;51.720;14.384;2023-02-11T10:24:57;6.40;99.90
18779;DHT22;9518;51.720;14.384;2023-02-11T10:27:30;6.50;94.10
18779;DHT22;9518;51.720;14.384;2023-02-11T10:30:00;6.50;13.60
18779;DHT22;9518;51.720;14.384;2023-02-11T10:32:33;6.50;98.50
18779;DHT22;9518;51.720;14.384;2023-02-11T10:35:03;6.40;99.90
18779;DHT22;9518;51.720;14.384;2023-02-11T10:37:37;6.50;99.90
18779;DHT22;9518;51.720;14.384;2023-02-11T10:40:06;6.50;99.90
18779;DHT22;9518;51.720;14.384;2023-02-11T10:42:39;6.40;99.90
18779;DHT22;9518;51.720;14.384;2023-02-11T10:45:16;6.40;99.90
18779;DHT22;9518;51.720;14.384;2023-02-11T10:47:44;6.40;99.90
18779;DHT22;9518;51.720;14.384;2023-02-11T10:50:19;6.50;99.90
18779;DHT22;9518;51.720;14.384;2023-02-11T10:52:48;6.40;1.00
18779;DHT22;9518;51.720;14.384;2023-02-11T10:55:18;6.30;1.00
18779;DHT22;9518;51.720;14.384;2023-02-11T10:57:53;6.30;1.00
18779;DHT22;9518;51.720;14.384;2023-02-11T11:00:33;6.30;1.00
18779;DHT22;9518;51.720;14.384;2023-02-11T11:03:04;6.40;1.00
18779;DHT22;9518;51.720;14.384;2023-02-11T11:05:35;6.20;1.00
18779;DHT22;9518;51.720;14.384;2023-02-11T11:08:05;6.30;1.00
18779;DHT22;9518;51.720;14.384;2023-02-11T11:10:40;6.30;1.00
18779;DHT22;9518;51.720;14.384;2023-02-11T11:13:28;6.40;1.00
18779;DHT22;9518;51.720;14.384;2023-02-11T11:16:17;6.30;1.00
18779;DHT22;9518;51.720;14.384;2023-02-11T11:18:46;6.40;1.00
18779;DHT22;9518;51.720;14.384;2023-02-11T11:21:16;6.40;1.00
18779;DHT22;9518;51.720;14.384;2023-02-11T11:23:54;6.30;1.00
18779;DHT22;9518;51.720;14.384;2023-02-11T11:26:22;6.40;1.00
18779;DHT22;9518;51.720;14.384;2023-02-11T11:28:55;6.30;1.00
18779;DHT22;9518;51.720;14.384;2023-02-11T11:31:26;6.30;5.10
18779;DHT22;9518;51.720;14.384;2023-02-11T11:33:55;6.30;47.60
18779;DHT22;9518;51.720;14.384;2023-02-11T11:36:31;6.30;39.60
18779;DHT22;9518;51.720;14.384;2023-02-11T11:39:09;6.30;99.90
18779;DHT22;9518;51.720;14.384;2023-02-11T11:41:50;6.20;99.90
18779;DHT22;9518;51.720;14.384;2023-02-11T11:44:23;6.20;99.90
18779;DHT22;9518;51.720;14.384;2023-02-11T11:49:42;6.30;99.90
18779;DHT22;9518;51.720;14.384;2023-02-11T11:52:16;6.20;99.90
18779;DHT22;9518;51.720;14.384;2023-02-11T11:54:52;6.20;99.90
18779;DHT22;9518;51.720;14.384;2023-02-11T11:57:25;6.20;99.90
18779;DHT22;9518;51.720;14.384;2023-02-11T11:59:56;6.20;1.00
18779;DHT22;9518;51.720;14.384;2023-02-11T12:03:03;6.20;1.00
18779;DHT22;9518;51.720;14.384;2023-02-11T12:05:40;6.30;1.00
18779;DHT22;9518;51.720;14.384;2023-02-11T12:08:15;6.30;1.00
18779;DHT22;9518;51.720;14.384;2023-02-11T12:10:57;6.30;1.00
18779;DHT22;9518;51.720;14.384;2023-02-11T12:13:39;6.40;1.00
18779;DHT22;9518;51.720;14.384;2023-02-11T12:16:16;6.40;1.00
18779;DHT22;9518;51.720;14.384;2023-02-11T12:21:51;6.40;1.00
18779;DHT22;9518;51.720;14.384;2023-02-11T12:24:29;6.30;1.00
18779;DHT22;9518;51.720;14.384;2023-02-11T12:27:04;6.30;1.00
18779;DHT22;9518;51.720;14.384;2023-02-11T12:29:40;6.30;1.00
18779;DHT22;9518;51.720;14.384;2023-02-11T12:32:20;6.40;1.00
18779;DHT22;9518;51.720;14.384;2023-02-11T12:35:00;6.30;1.00
18779;DHT22;9518;51.720;14.384;2023-02-11T12:37:44;6.20;99.90
18779;DHT22;9518;51.720;14.384;2023-02-11T12:40:18;6.20;1.00
18779;DHT22;9518;51.720;14.384;2023-02-11T12:42:59;6.30;1.00
18779;DHT22;9518;51.720;14.384;2023-02-11T12:46:06;6.30;1.00
18779;DHT22;9518;51.720;14.384;2023-02-11T12:49:04;6.20;23.80
18779;DHT22;9518;51.720;14.384;2023-02-11T12:51:54;6.30;1.00
18779;DHT22;9518;51.720;14.384;2023-02-11T12:54:27;6.30;1.00
18779;DHT22;9518;51.720;14.384;2023-02-11T12:56:59;6.30;99.90
18779;DHT22;9518;51.720;14.384;2023-02-11T12:59:43;6.30;99.90
18779;DHT22;9518;51.720;14.384;2023-02-11T13:02:33;6.30;99.90
18779;DHT22;9518;51.720;14.384;2023-02-11T13:05:11;6.30;1.00
18779;DHT22;9518;51.720;14.384;2023-02-11T13:07:44;6.20;1.00
18779;DHT22;9518;51.720;14.384;2023-02-11T13:10:21;6.20;1.00
18779;DHT22;9518;51.720;14.384;2023-02-11T13:12:51;6.10;1.00
18779;DHT22;9518;51.720;14.384;2023-02-11T13:15:38;6.00;1.00
18779;DHT22;9518;51.720;14.384;2023-02-11T13:18:16;6.00;1.00
18779;DHT22;9518;51.720;14.384;2023-02-11T13:20:48;5.90;1.00
18779;DHT22;9518;51.720;14.384;2023-02-11T13:23:21;5.90;1.00
18779;DHT22;9518;51.720;14.384;2023-02-11T13:25:54;5.90;27.30
18779;DHT22;9518;51.720;14.384;2023-02-11T13:28:30;5.80;79.80
18779;DHT22;9518;51.720;14.384;2023-02-11T13:31:02;5.80;99.90
18779;DHT22;9518;51.720;14.384;2023-02-11T13:33:34;5.70;99.90
18779;DHT22;9518;51.720;14.384;2023-02-11T13:36:19;5.70;99.90
18779;DHT22;9518;51.720;14.384;2023-02-11T13:39:16;5.70;99.90
18779;DHT22;9518;51.720;14.384;2023-02-11T13:41:46;5.70;99.90
18779;DHT22;9518;51.720;14.384;2023-02-11T13:44:24;5.60;99.90
18779;DHT22;9518;51.720;14.384;2023-02-11T13:46:56;5.60;99.90
18779;DHT22;9518;51.720;14.384;2023-02-11T13:49:29;5.60;99.90
18779;DHT22;9518;51.720;14.384;2023-02-11T13:51:58;5.60;99.90
18779;DHT22;9518;51.720;14.384;2023-02-11T13:54:29;5.60;99.90
18779;DHT22;9518;51.720;14.384;2023-02-11T13:57:24;5.70;99.90
18779;DHT22;9518;51.720;14.384;2023-02-11T13:59:52;5.60;99.90
18779;DHT22;9518;51.720;14.384;2023-02-11T14:02:25;5.60;99.90
18779;DHT22;9518;51.720;14.384;2023-02-11T14:05:23;5.60;99.90
18779;DHT22;9518;51.720;14.384;2023-02-11T14:08:32;5.60;99.90
18779;DHT22;9518;51.720;14.384;2023-02-11T14:11:42;5.60;99.90
18779;DHT22;9518;51.720;14.384;2023-02-11T14:14:22;5.60;99.90
18779;DHT22;9518;51.720;14.384;2023-02-11T14:17:16;5.60;99.90
18779;DHT22;9518;51.720;14.384;2023-02-11T14:19:47;5.60;99.90
18779;DHT22;9518;51.720;14.384;2023-02-11T14:22:17;5.60;99.90
18779;DHT22;9518;51.720;14.384;2023-02-11T14:24:51;5.60;99.90
18779;DHT22;9518;51.720;14.384;2023-02-11T14:27:26;5.60;99.90
18779;DHT22;9518;51.720;14.384;2023-02-11T14:32:56;5.60;99.90
18779;DHT22;9518;51.720;14.384;2023-02-11T14:35:35;5.60;99.90
18779;DHT22;9518;51.720;14.384;2023-02-11T14:38:11;5.60;99.90
18779;DHT22;9518;51.720;14.384;2023-02-11T14:40:47;5.60;99.90
18779;DHT22;9518;51.720;14.384;2023-02-11T14:43:19;5.60;99.90
18779;DHT22;9518;51.720;14.384;2023-02-11T14:45:52;5.60;99.90
18779;DHT22;9518;51.720;14.384;2023-02-11T14:48:22;5.60;99.90
18779;DHT22;9518;51.720;14.384;2023-02-11T14:50:59;5.70;99.90
18779;DHT22;9518;51.720;14.384;2023-02-11T14:53:29;5.60;99.90
18779;DHT22;9518;51.720;14.384;2023-02-11T14:55:57;5.70;99.90
18779;DHT22;9518;51.720;14.384;2023-02-11T14:58:26;5.60;99.90
18779;DHT22;9518;51.720;14.384;2023-02-11T15:00:56;5.60;99.90
18779;DHT22;9518;51.720;14.384;2023-02-11T15:03:26;5.70;99.90
18779;DHT22;9518;51.720;14.384;2023-02-11T15:05:55;5.70;99.90
18779;DHT22;9518;51.720;14.384;2023-02-11T15:08:23;5.70;99.90
18779;DHT22;9518;51.720;14.384;2023-02-11T15:10:52;5.70;99.90
18779;DHT22;9518;51.720;14.384;2023-02-11T15:13:22;5.70;99.90
18779;DHT22;9518;51.720;14.384;2023-02-11T15:15:54;5.60;99.90
18779;DHT22;9518;51.720;14.384;2023-02-11T15:18:27;5.70;99.90
18779;DHT22;9518;51.720;14.384;2023-02-11T15:20:57;5.70;99.90
18779;DHT22;9518;51.720;14.384;2023-02-11T15:23:26;5.80;99.90
18779;DHT22;9518;51.720;14.384;2023-02-11T15:25:54;5.80;99.90
18779;DHT22;9518;51.720;14.384;2023-02-11T15:28:24;5.80;99.90
18779;DHT22;9518;51.720;14.384;2023-02-11T15:30:59;5.70;99.90
18779;DHT22;9518;51.720;14.384;2023-02-11T15:33:28;5.70;99.90
18779;DHT22;9518;51.720;14.384;2023-02-11T15:35:59;5.70;99.90
18779;DHT22;9518;51.720;14.384;2023-02-11T15:38:26;5.70;99.90
18779;DHT22;9518;51.720;14.384;2023-02-11T15:40:56;5.70;99.90
18779;DHT22;9518;51.720;14.384;2023-02-11T15:43:39;5.70;99.90
18779;DHT22;9518;51.720;14.384;2023-02-11T15:46:09;5.60;99.90
18779;DHT22;9518;51.720;14.384;2023-02-11T15:48:41;5.60;99.90
18779;DHT22;9518;51.720;14.384;2023-02-11T15:51:18;5.60;99.90
18779;DHT22;9518;51.720;14.384;2023-02-11T15:53:48;5.60;99.90
18779;DHT22;9518;51.720;14.384;2023-02-11T15:56:21;5.50;99.90
18779;DHT22;9518;51.720;14.384;2023-02-11T15:58:52;5.50;99.90
18779;DHT22;9518;51.720;14.384;2023-02-11T16:01:28;5.60;99.90
18779;DHT22;9518;51.720;14.384;2023-02-11T16:03:56;5.60;99.90
18779;DHT22;9518;51.720;14.384;2023-02-11T16:06:26;5.50;99.90
18779;DHT22;9518;51.720;14.384;2023-02-11T16:09:02;5.60;99.90
18779;DHT22;9518;51.720;14.384;2023-02-11T16:11:31;5.60;99.90
18779;DHT22;9518;51.720;14.384;2023-02-11T16:13:59;5.60;99.90
18779;DHT22;9518;51.720;14.384;2023-02-11T16:16:28;5.60;99.90
18779;DHT22;9518;51.720;14.384;2023-02-11T16:18:59;5.60;99.90
18779;DHT22;9518;51.720;14.384;2023-02-11T16:21:31;5.60;99.90
18779;DHT22;9518;51.720;14.384;2023-02-11T16:24:00;5.60;99.90
18779;DHT22;9518;51.720;14.384;2023-02-11T16:26:31;5.60;99.90
18779;DHT22;9518;51.720;14.384;2023-02-11T16:29:05;5.60;99.90
18779;DHT22;9518;51.720;14.384;2023-02-11T16:31:34;5.50;99.90
18779;DHT22;9518;51.720;14.384;2023-02-11T16:34:03;5.50;99.90